Terminal Aerodrome Forecast
Issued by NWS

Home | Current Version | Previous Version | Text Only | Print | Product List | Glossary On
Versions: 1 2 3 4 5 6 7 8 9 10 11 12 13 14 15 16 17 18 19 20 21
734
FTUS45 KTFX 261739
TAFBZN
TAF
KBZN 261739Z 2618/2718 VRB06KT P6SM OVC040
     FM262100 23006KT P6SM VCSH SCT020 OVC040 PROB30 2703/2709 5SM
      -SN OVC020
     FM270900 20004KT P6SM SCT015 OVC030 PROB30 2709/2715 1SM -SN
      OVC015=

USA.gov is the U.S. government's official web portal to all federal, state and local government web resources and services.